Time;durP1;ratioP1;P1;durP2;ratioP2;P2;SDS_P1;SDS_P2;PMS_P1;PMS_P2;Temp;Humidity;BMP_temperature;BMP_pressure;BME280_temperature;BME280_humidity;BME280_pressure;Samples;Min_cycle;Max_cycle;Signal;HPM_P1;HPM_P2
2023/06/22 00:00:16;;;;;;;16.55;6.15;;;;;;;;;;6221586;28;20054;-75
2023/06/22 00:03:21;;;;;;;14.02;5.93;;;;;;;;;;6218298;28;20360;-74
2023/06/22 00:06:22;;;;;;;13.00;6.50;;;;;;;;;;6220426;28;20133;-74
2023/06/22 00:09:24;;;;;;;13.45;6.10;;;;;;;;;;6220751;28;20054;-74
2023/06/22 00:12:26;;;;;;;14.57;6.43;;;;;;;;;;6216883;28;20065;-73
2023/06/22 00:15:28;;;;;;;14.40;6.72;;;;;;;;;;6219631;28;20337;-74
2023/06/22 00:18:32;;;;;;;15.57;6.72;;;;;;;;;;6222462;28;20057;-73
2023/06/22 00:21:34;;;;;;;14.00;7.03;;;;;;;;;;6220504;28;20045;-73
2023/06/22 00:24:36;;;;;;;15.93;6.93;;;;;;;;;;6221590;28;20062;-73
2023/06/22 00:27:37;;;;;;;15.18;7.25;;;;;;;;;;6218306;28;20163;-73
2023/06/22 00:30:39;;;;;;;13.88;7.32;;;;;;;;;;6220614;28;20046;-74
2023/06/22 00:33:44;;;;;;;16.00;7.50;;;;;;;;;;6222496;28;20057;-73
2023/06/22 00:36:46;;;;;;;13.15;7.55;;;;;;;;;;6218809;28;20512;-73
2023/06/22 00:39:48;;;;;;;11.63;6.80;;;;;;;;;;6219304;28;20054;-73
2023/06/22 00:42:49;;;;;;;14.13;7.15;;;;;;;;;;6219219;28;20058;-74
2023/06/22 00:45:52;;;;;;;11.80;7.32;;;;;;;;;;6224015;28;20056;-73
2023/06/22 00:48:57;;;;;;;14.45;7.80;;;;;;;;;;6221038;28;20104;-73
2023/06/22 00:51:58;;;;;;;12.57;7.82;;;;;;;;;;6221232;28;20054;-75
2023/06/22 00:55:01;;;;;;;13.07;8.10;;;;;;;;;;6220596;28;20057;-73
2023/06/22 00:58:05;;;;;;;13.35;7.13;;;;;;;;;;6219468;28;20273;-73
2023/06/22 01:01:07;;;;;;;14.80;7.80;;;;;;;;;;6219139;28;20242;-74
2023/06/22 01:04:11;;;;;;;15.82;7.70;;;;;;;;;;6220661;28;20107;-73
2023/06/22 01:07:19;;;;;;;17.75;7.70;;;;;;;;;;6217315;28;20100;-73
2023/06/22 01:10:26;;;;;;;12.38;7.40;;;;;;;;;;6219432;28;20059;-76
2023/06/22 01:13:37;;;;;;;14.50;7.47;;;;;;;;;;6219187;28;20054;-74
2023/06/22 01:16:42;;;;;;;15.73;8.25;;;;;;;;;;6217160;28;20058;-73
2023/06/22 01:19:47;;;;;;;10.07;7.15;;;;;;;;;;6218708;28;20345;-73
2023/06/22 01:23:04;;;;;;;21.77;8.15;;;;;;;;;;6221349;28;20057;-75
2023/06/22 01:26:10;;;;;;;19.88;7.78;;;;;;;;;;6222635;28;20058;-73
2023/06/22 01:29:14;;;;;;;18.42;8.32;;;;;;;;;;6222050;28;20267;-75
2023/06/22 01:32:16;;;;;;;13.63;8.50;;;;;;;;;;6220552;28;21064;-73
2023/06/22 01:35:18;;;;;;;18.87;7.67;;;;;;;;;;6225597;28;20112;-73
2023/06/22 01:38:21;;;;;;;15.38;7.53;;;;;;;;;;6224069;28;20281;-73
2023/06/22 01:41:26;;;;;;;13.00;7.97;;;;;;;;;;6222576;28;20058;-73
2023/06/22 01:44:30;;;;;;;14.90;7.57;;;;;;;;;;6223685;28;20354;-73
2023/06/22 01:47:32;;;;;;;13.45;7.75;;;;;;;;;;6221761;28;20891;-75
2023/06/22 01:50:33;;;;;;;14.05;7.60;;;;;;;;;;6225158;28;20342;-74
2023/06/22 01:53:35;;;;;;;15.32;8.57;;;;;;;;;;6222745;28;20049;-75
2023/06/22 01:56:37;;;;;;;11.43;7.75;;;;;;;;;;6222715;28;20961;-72
2023/06/22 01:59:47;;;;;;;14.70;8.40;;;;;;;;;;6222297;28;20218;-76
2023/06/22 02:02:53;;;;;;;15.38;7.78;;;;;;;;;;6221626;28;20363;-74
2023/06/22 02:05:59;;;;;;;13.93;8.15;;;;;;;;;;6225977;28;20057;-73
2023/06/22 02:09:03;;;;;;;16.75;8.23;;;;;;;;;;6222072;28;20061;-74
2023/06/22 02:12:06;;;;;;;14.35;8.27;;;;;;;;;;6223181;28;20242;-74
2023/06/22 02:15:10;;;;;;;18.02;8.13;;;;;;;;;;6224738;28;20270;-73
2023/06/22 02:18:12;;;;;;;11.32;7.82;;;;;;;;;;6223395;28;20352;-73
2023/06/22 02:21:14;;;;;;;15.57;8.43;;;;;;;;;;6222826;28;20214;-74
2023/06/22 02:24:16;;;;;;;16.75;8.38;;;;;;;;;;6227150;28;20062;-74
2023/06/22 02:27:18;;;;;;;15.43;8.02;;;;;;;;;;6221099;28;20113;-74
2023/06/22 02:30:21;;;;;;;18.33;8.95;;;;;;;;;;6221921;28;20053;-74
2023/06/22 02:33:22;;;;;;;;;;;;;;;;;;6221593;28;20436;-74
2023/06/22 02:36:24;;;;;;;15.13;7.88;;;;;;;;;;6223518;28;19932;-76
2023/06/22 02:39:27;;;;;;;14.38;7.95;;;;;;;;;;6222176;28;20077;-73
2023/06/22 02:42:28;;;;;;;17.85;7.88;;;;;;;;;;6223420;28;20061;-76
2023/06/22 02:45:31;;;;;;;13.95;7.65;;;;;;;;;;6222961;28;20080;-74
2023/06/22 02:48:33;;;;;;;;;;;;;;;;;;6222560;28;20058;-74
2023/06/22 02:51:35;;;;;;;14.02;7.50;;;;;;;;;;6222046;28;20112;-73
2023/06/22 02:54:37;;;;;;;15.00;7.97;;;;;;;;;;6222329;28;20358;-74
2023/06/22 02:57:43;;;;;;;18.30;8.25;;;;;;;;;;6221602;28;20338;-74
2023/06/22 03:00:46;;;;;;;13.40;8.15;;;;;;;;;;6221353;28;20120;-73
2023/06/22 03:03:47;;;;;;;;;;;;;;;;;;6224936;28;21269;-74
2023/06/22 03:06:50;;;;;;;11.68;7.82;;;;;;;;;;6220554;28;19937;-73
2023/06/22 03:09:52;;;;;;;14.30;7.93;;;;;;;;;;6220794;28;20144;-74
2023/06/22 03:12:54;;;;;;;16.92;7.78;;;;;;;;;;6220841;28;20095;-74
2023/06/22 03:15:57;;;;;;;13.27;8.43;;;;;;;;;;6221860;28;20053;-75
2023/06/22 03:18:58;;;;;;;15.00;8.63;;;;;;;;;;6221900;28;20054;-75
2023/06/22 03:22:01;;;;;;;12.68;8.15;;;;;;;;;;6221916;28;20064;-74
2023/06/22 03:25:02;;;;;;;11.88;8.00;;;;;;;;;;6223955;28;20057;-74
2023/06/22 03:28:04;;;;;;;12.30;7.55;;;;;;;;;;6220725;28;20092;-73
2023/06/22 03:31:07;;;;;;;12.57;7.90;;;;;;;;;;6219807;28;20056;-73
2023/06/22 03:34:09;;;;;;;;;;;;;;;;;;6223107;28;20065;-75
2023/06/22 03:37:11;;;;;;;13.98;7.82;;;;;;;;;;6220278;28;19925;-74
2023/06/22 03:40:13;;;;;;;14.50;7.97;;;;;;;;;;6222965;28;20121;-73
2023/06/22 03:43:15;;;;;;;20.05;8.73;;;;;;;;;;6218935;28;20057;-74
2023/06/22 03:46:19;;;;;;;12.02;8.35;;;;;;;;;;6219633;28;20060;-73
2023/06/22 03:49:21;;;;;;;19.55;8.55;;;;;;;;;;6219816;28;20049;-73
2023/06/22 03:52:23;;;;;;;14.45;8.52;;;;;;;;;;6219901;28;20058;-74
2023/06/22 03:55:24;;;;;;;19.48;8.32;;;;;;;;;;6221373;28;20054;-76
2023/06/22 03:58:26;;;;;;;14.07;8.50;;;;;;;;;;6219671;28;20360;-74
2023/06/22 04:01:29;;;;;;;13.02;8.20;;;;;;;;;;6220037;28;21731;-74
2023/06/22 04:04:31;;;;;;;16.95;8.05;;;;;;;;;;6219272;28;20377;-75
2023/06/22 04:07:32;;;;;;;14.50;8.73;;;;;;;;;;6219926;28;20217;-73
2023/06/22 04:10:34;;;;;;;17.15;8.07;;;;;;;;;;6220230;28;20062;-75
2023/06/22 04:13:36;;;;;;;13.25;8.48;;;;;;;;;;6220237;28;20053;-73
2023/06/22 04:16:39;;;;;;;12.60;8.18;;;;;;;;;;6219773;28;20250;-73
2023/06/22 04:19:40;;;;;;;15.55;9.02;;;;;;;;;;6220719;28;20058;-73
2023/06/22 04:22:42;;;;;;;14.57;9.52;;;;;;;;;;6219284;28;20100;-75
2023/06/22 04:25:44;;;;;;;12.82;8.77;;;;;;;;;;6221357;28;20172;-73
2023/06/22 04:28:51;;;;;;;14.85;9.80;;;;;;;;;;6219243;28;20050;-74
2023/06/22 04:31:55;;;;;;;11.45;8.43;;;;;;;;;;6219521;28;20104;-74
2023/06/22 04:34:57;;;;;;;16.13;8.68;;;;;;;;;;6219045;28;20068;-76
2023/06/22 04:37:59;;;;;;;16.38;8.85;;;;;;;;;;6218566;28;20060;-75
2023/06/22 04:41:03;;;;;;;15.65;8.55;;;;;;;;;;6216226;28;20166;-74
2023/06/22 04:44:05;;;;;;;15.68;8.88;;;;;;;;;;6215999;28;20057;-76
2023/06/22 04:47:08;;;;;;;16.67;8.95;;;;;;;;;;6216095;28;20396;-73
2023/06/22 04:50:10;;;;;;;15.82;9.00;;;;;;;;;;6214668;28;20060;-73
2023/06/22 04:53:12;;;;;;;16.70;8.75;;;;;;;;;;6213029;28;20050;-74
2023/06/22 04:56:15;;;;;;;19.70;9.02;;;;;;;;;;6215897;28;20054;-73
2023/06/22 04:59:18;;;;;;;;;;;;;;;;;;6219091;28;20077;-74
2023/06/22 05:02:22;;;;;;;16.50;9.03;;;;;;;;;;6221428;28;19979;-76
2023/06/22 05:05:24;;;;;;;13.82;8.68;;;;;;;;;;6221018;28;20611;-73
2023/06/22 05:08:28;;;;;;;12.20;8.02;;;;;;;;;;6220087;28;20061;-75
2023/06/22 05:11:30;;;;;;;15.20;8.73;;;;;;;;;;6217184;28;20242;-73
2023/06/22 05:14:31;;;;;;;16.83;8.82;;;;;;;;;;6220551;28;20342;-75
2023/06/22 05:17:35;;;;;;;15.75;8.57;;;;;;;;;;6219793;28;20388;-74
2023/06/22 05:20:36;;;;;;;13.60;8.70;;;;;;;;;;6221528;28;20053;-74
2023/06/22 05:23:38;;;;;;;17.95;7.82;;;;;;;;;;6218931;28;20054;-74
2023/06/22 05:26:40;;;;;;;14.38;8.40;;;;;;;;;;6220227;28;20058;-74
2023/06/22 05:29:42;;;;;;;25.10;8.88;;;;;;;;;;6216118;28;20282;-75
2023/06/22 05:32:45;;;;;;;13.63;7.80;;;;;;;;;;6217370;28;20065;-75
2023/06/22 05:35:47;;;;;;;14.05;7.85;;;;;;;;;;6221569;28;20522;-73
2023/06/22 05:38:49;;;;;;;17.88;8.85;;;;;;;;;;6222909;28;20058;-73
2023/06/22 05:41:50;;;;;;;12.30;7.65;;;;;;;;;;6221907;28;20057;-73
2023/06/22 05:44:53;;;;;;;16.40;7.72;;;;;;;;;;6219262;28;20060;-73
2023/06/22 05:47:56;;;;;;;11.55;8.00;;;;;;;;;;6219367;28;20284;-74
2023/06/22 05:50:57;;;;;;;14.70;8.45;;;;;;;;;;6218294;28;20056;-74
2023/06/22 05:53:59;;;;;;;14.25;8.65;;;;;;;;;;6216297;28;20063;-73
2023/06/22 05:57:01;;;;;;;14.02;8.15;;;;;;;;;;6218855;28;20253;-74
2023/06/22 06:00:05;;;;;;;12.23;7.72;;;;;;;;;;6217279;28;20057;-74
2023/06/22 06:03:09;;;;;;;12.18;8.38;;;;;;;;;;6218141;28;20157;-76
2023/06/22 06:06:11;;;;;;;14.65;7.68;;;;;;;;;;6220773;28;20192;-75
2023/06/22 06:09:13;;;;;;;14.80;9.32;;;;;;;;;;6217865;28;20057;-74
2023/06/22 06:12:14;;;;;;;13.75;7.88;;;;;;;;;;6216168;28;20395;-73
2023/06/22 06:15:16;;;;;;;23.23;7.82;;;;;;;;;;6219184;28;20069;-73
2023/06/22 06:18:19;;;;;;;13.55;7.50;;;;;;;;;;6219516;28;20045;-73
2023/06/22 06:21:21;;;;;;;;;;;;;;;;;;6220764;28;20065;-73
2023/06/22 06:24:22;;;;;;;11.02;6.82;;;;;;;;;;6219981;28;20123;-73
2023/06/22 06:27:28;;;;;;;15.65;7.00;;;;;;;;;;6221102;28;20046;-74
2023/06/22 06:30:30;;;;;;;19.02;7.18;;;;;;;;;;6224952;28;20121;-74
2023/06/22 06:33:33;;;;;;;9.98;6.50;;;;;;;;;;6218726;28;20050;-75
2023/06/22 06:36:35;;;;;;;;;;;;;;;;;;6221475;28;20054;-75
2023/06/22 06:39:37;;;;;;;18.38;7.15;;;;;;;;;;6225661;28;19925;-73
2023/06/22 06:42:41;;;;;;;18.02;7.68;;;;;;;;;;6222935;28;20062;-75
2023/06/22 06:45:43;;;;;;;15.35;7.47;;;;;;;;;;6226766;28;20084;-73
2023/06/22 06:48:46;;;;;;;14.80;7.07;;;;;;;;;;6223578;28;20144;-74
2023/06/22 06:51:47;;;;;;;;;;;;;;;;;;6223986;28;20081;-74
2023/06/22 06:54:51;;;;;;;17.75;7.63;;;;;;;;;;6222858;28;19917;-74
2023/06/22 06:57:53;;;;;;;15.07;7.72;;;;;;;;;;6222045;28;20054;-75
2023/06/22 07:00:55;;;;;;;19.85;8.07;;;;;;;;;;6216757;28;20054;-76
2023/06/22 07:03:58;;;;;;;13.20;7.70;;;;;;;;;;6220073;28;20064;-75
2023/06/22 07:06:59;;;;;;;;;;;;;;;;;;6219233;28;20281;-75
2023/06/22 07:10:01;;;;;;;14.95;9.25;;;;;;;;;;6218030;28;19922;-73
2023/06/22 07:13:03;;;;;;;19.92;7.93;;;;;;;;;;6216620;28;20396;-73
2023/06/22 07:16:05;;;;;;;16.00;7.78;;;;;;;;;;6216468;28;20058;-73
2023/06/22 07:19:08;;;;;;;23.75;8.05;;;;;;;;;;6215862;28;20054;-74
2023/06/22 07:22:10;;;;;;;15.43;8.38;;;;;;;;;;6218515;28;20645;-73
2023/06/22 07:25:14;;;;;;;12.18;7.40;;;;;;;;;;6217217;28;20056;-73
2023/06/22 07:28:15;;;;;;;11.35;7.38;;;;;;;;;;6217118;28;20068;-74
2023/06/22 07:31:17;;;;;;;11.30;7.30;;;;;;;;;;6215275;28;20054;-74
2023/06/22 07:34:20;;;;;;;18.35;8.57;;;;;;;;;;6216003;28;20046;-72
2023/06/22 07:37:22;;;;;;;11.50;7.25;;;;;;;;;;6215547;28;20050;-72
2023/06/22 07:40:23;;;;;;;13.40;7.50;;;;;;;;;;6215855;28;20062;-74
2023/06/22 07:43:25;;;;;;;13.77;7.60;;;;;;;;;;6214572;28;20104;-73
2023/06/22 07:46:27;;;;;;;16.63;7.55;;;;;;;;;;6216315;28;20273;-73
2023/06/22 07:49:30;;;;;;;19.23;8.20;;;;;;;;;;6215572;28;20096;-73
2023/06/22 07:52:32;;;;;;;15.13;7.53;;;;;;;;;;6219662;28;20348;-76
2023/06/22 07:55:34;;;;;;;15.35;7.95;;;;;;;;;;6214654;28;20076;-73
2023/06/22 07:58:36;;;;;;;17.73;8.80;;;;;;;;;;6216554;28;20392;-75
2023/06/22 08:01:37;;;;;;;18.80;8.27;;;;;;;;;;6219525;28;20050;-77
2023/06/22 08:04:40;;;;;;;10.63;6.93;;;;;;;;;;6214899;28;20073;-78
2023/06/22 08:07:44;;;;;;;14.38;7.15;;;;;;;;;;6217974;28;20094;-76
2023/06/22 08:10:46;;;;;;;11.57;7.10;;;;;;;;;;6214535;28;20058;-76
2023/06/22 08:13:47;;;;;;;16.50;7.32;;;;;;;;;;6214523;28;20065;-73
2023/06/22 08:16:49;;;;;;;13.10;7.22;;;;;;;;;;6218867;28;20227;-74
2023/06/22 08:19:52;;;;;;;13.18;6.47;;;;;;;;;;6212904;28;20054;-74
2023/06/22 08:22:55;;;;;;;19.52;7.80;;;;;;;;;;6216452;28;20053;-74
2023/06/22 08:25:57;;;;;;;15.73;7.43;;;;;;;;;;6220895;28;20046;-75
2023/06/22 08:28:58;;;;;;;19.35;7.57;;;;;;;;;;6214009;28;20266;-76
2023/06/22 08:32:00;;;;;;;15.75;7.43;;;;;;;;;;6213255;28;20122;-74
2023/06/22 08:35:05;;;;;;;16.93;7.90;;;;;;;;;;6214834;28;20061;-74
2023/06/22 08:38:07;;;;;;;19.95;8.00;;;;;;;;;;6213801;28;20472;-74
2023/06/22 08:41:09;;;;;;;13.57;7.90;;;;;;;;;;6215366;28;20050;-72
2023/06/22 08:44:10;;;;;;;12.93;7.40;;;;;;;;;;6214584;28;20054;-75
2023/06/22 08:47:12;;;;;;;10.93;7.00;;;;;;;;;;6218081;28;20062;-75
2023/06/22 08:50:15;;;;;;;16.77;7.28;;;;;;;;;;6214715;28;20049;-74
2023/06/22 08:53:17;;;;;;;12.32;7.65;;;;;;;;;;6214826;28;20050;-74
2023/06/22 08:56:19;;;;;;;12.88;7.40;;;;;;;;;;6214516;28;20053;-74
2023/06/22 08:59:20;;;;;;;11.40;6.82;;;;;;;;;;6215143;28;20104;-74
2023/06/22 09:02:22;;;;;;;15.00;7.73;;;;;;;;;;6213659;28;20346;-74
2023/06/22 09:05:26;;;;;;;9.88;6.63;;;;;;;;;;6214352;28;20495;-74
2023/06/22 09:08:27;;;;;;;12.77;7.05;;;;;;;;;;6214988;28;20296;-76
2023/06/22 09:11:29;;;;;;;19.65;7.38;;;;;;;;;;6214024;28;20058;-76
2023/06/22 09:14:31;;;;;;;16.52;7.50;;;;;;;;;;6212075;28;20231;-75
2023/06/22 09:17:32;;;;;;;16.90;8.32;;;;;;;;;;6216051;28;20064;-74
2023/06/22 09:20:35;;;;;;;20.88;8.50;;;;;;;;;;6216574;28;20231;-72
2023/06/22 09:23:37;;;;;;;13.88;8.85;;;;;;;;;;6214907;28;20203;-74
2023/06/22 09:26:39;;;;;;;13.55;7.43;;;;;;;;;;6216413;28;20246;-75
2023/06/22 09:29:40;;;;;;;11.98;7.25;;;;;;;;;;6213589;28;20046;-74
2023/06/22 09:32:43;;;;;;;13.23;7.05;;;;;;;;;;6214587;28;20056;-74
2023/06/22 09:35:46;;;;;;;16.55;7.60;;;;;;;;;;6189115;28;20229;-74
2023/06/22 09:38:48;;;;;;;15.35;7.40;;;;;;;;;;6215185;28;20070;-78
2023/06/22 09:41:51;;;;;;;17.70;8.93;;;;;;;;;;6218262;28;20285;-76
2023/06/22 09:44:53;;;;;;;12.43;8.10;;;;;;;;;;6217531;28;20088;-75
2023/06/22 09:47:54;;;;;;;14.68;8.60;;;;;;;;;;6219507;28;20046;-76
2023/06/22 09:50:57;;;;;;;11.93;7.50;;;;;;;;;;6219825;28;20053;-77
2023/06/22 09:53:59;;;;;;;15.88;8.82;;;;;;;;;;6219032;28;20054;-78
2023/06/22 09:57:01;;;;;;;;;;;;;;;;;;6223741;28;20084;-75
2023/06/22 10:00:05;;;;;;;13.03;9.07;;;;;;;;;;6215028;28;19929;-75
2023/06/22 10:03:07;;;;;;;15.57;8.45;;;;;;;;;;6218609;28;20476;-75
2023/06/22 10:06:10;;;;;;;14.95;8.43;;;;;;;;;;6220789;28;20046;-76
2023/06/22 10:09:11;;;;;;;14.25;8.15;;;;;;;;;;6216533;28;20047;-74
2023/06/22 10:12:13;;;;;;;15.43;7.65;;;;;;;;;;6217729;28;20066;-75
2023/06/22 10:15:15;;;;;;;;;;;;;;;;;;6221609;28;20050;-75
2023/06/22 10:18:17;;;;;;;15.88;8.38;;;;;;;;;;6218770;28;19926;-75
2023/06/22 10:21:20;;;;;;;16.17;7.43;;;;;;;;;;6220810;28;20045;-76
2023/06/22 10:24:21;;;;;;;14.77;8.10;;;;;;;;;;6218176;28;20042;-76
2023/06/22 10:27:23;;;;;;;;;;;;;;;;;;6223027;28;20054;-75
2023/06/22 10:30:24;;;;;;;12.63;7.90;;;;;;;;;;6217583;28;19933;-74
2023/06/22 10:33:26;;;;;;;9.80;6.93;;;;;;;;;;6216497;28;20073;-77
2023/06/22 10:36:29;;;;;;;;;;;;;;;;;;6220964;28;20057;-77
2023/06/22 10:39:31;;;;;;;11.30;6.68;;;;;;;;;;6212768;28;19932;-75
2023/06/22 10:42:32;;;;;;;;;;;;;;;;;;6218959;28;20046;-74
2023/06/22 10:45:34;;;;;;;12.07;7.57;;;;;;;;;;6216787;28;19917;-74
2023/06/22 10:48:35;;;;;;;;;;;;;;;;;;6217977;28;20093;-74
2023/06/22 10:51:38;;;;;;;12.52;6.97;;;;;;;;;;6218729;28;19925;-74
2023/06/22 10:54:40;;;;;;;11.82;7.18;;;;;;;;;;6219818;28;20062;-75
2023/06/22 10:57:44;;;;;;;;;;;;;;;;;;6218110;28;20748;-76
2023/06/22 11:00:45;;;;;;;10.77;6.28;;;;;;;;;;6216957;28;19925;-76
2023/06/22 11:03:47;;;;;;;;;;;;;;;;;;6213501;28;20062;-77
2023/06/22 11:06:50;;;;;;;8.60;6.20;;;;;;;;;;6219773;28;20209;-78
2023/06/22 11:09:52;;;;;;;9.88;6.20;;;;;;;;;;6214728;28;20078;-75
2023/06/22 11:12:55;;;;;;;;;;;;;;;;;;6216098;28;20053;-75
2023/06/22 11:15:57;;;;;;;12.30;6.13;;;;;;;;;;6223032;28;19926;-76
2023/06/22 11:18:58;;;;;;;;;;;;;;;;;;6219692;28;20057;-75
2023/06/22 11:22:01;;;;;;;10.27;6.25;;;;;;;;;;6217958;28;19936;-74
2023/06/22 11:25:03;;;;;;;12.07;6.15;;;;;;;;;;6219537;28;20382;-77
2023/06/22 11:28:05;;;;;;;9.65;6.00;;;;;;;;;;6223611;28;20134;-75
2023/06/22 11:31:08;;;;;;;8.90;5.80;;;;;;;;;;6221976;28;20330;-77
2023/06/22 11:34:10;;;;;;;9.30;6.53;;;;;;;;;;6220086;28;20056;-76
2023/06/22 11:37:13;;;;;;;14.98;7.32;;;;;;;;;;6223198;28;20053;-75
2023/06/22 11:40:15;;;;;;;10.00;6.32;;;;;;;;;;6221646;28;20069;-75
2023/06/22 11:43:16;;;;;;;10.07;6.95;;;;;;;;;;6221195;28;20056;-74
2023/06/22 11:46:18;;;;;;;9.70;6.28;;;;;;;;;;6223234;28;20054;-76
2023/06/22 11:49:20;;;;;;;10.23;6.18;;;;;;;;;;6223226;28;20126;-77
2023/06/22 11:52:23;;;;;;;13.43;7.03;;;;;;;;;;6218347;28;20053;-75
2023/06/22 11:55:24;;;;;;;8.45;5.70;;;;;;;;;;6220505;28;20377;-76
2023/06/22 11:58:26;;;;;;;7.90;5.93;;;;;;;;;;6219144;28;20073;-77
2023/06/22 12:01:28;;;;;;;10.15;6.05;;;;;;;;;;6219398;28;20061;-76
2023/06/22 12:04:29;;;;;;;;;;;;;;;;;;6219673;28;20121;-75
2023/06/22 12:07:32;;;;;;;11.90;5.78;;;;;;;;;;6220411;28;19941;-75
2023/06/22 12:10:34;;;;;;;9.57;5.72;;;;;;;;;;6222220;28;20231;-75
2023/06/22 12:13:35;;;;;;;;;;;;;;;;;;6220206;28;20053;-74
2023/06/22 12:16:37;;;;;;;9.75;6.30;;;;;;;;;;6223626;28;20105;-75
2023/06/22 12:19:39;;;;;;;14.90;6.00;;;;;;;;;;6218710;28;20046;-75
2023/06/22 12:22:42;;;;;;;8.65;5.82;;;;;;;;;;6220088;28;20125;-75
2023/06/22 12:25:45;;;;;;;9.60;5.90;;;;;;;;;;6218938;28;20050;-76
2023/06/22 12:28:48;;;;;;;12.15;5.75;;;;;;;;;;6222988;28;20054;-75
2023/06/22 12:31:50;;;;;;;12.70;5.60;;;;;;;;;;6222623;28;20057;-75
2023/06/22 12:34:52;;;;;;;10.30;5.72;;;;;;;;;;6216480;28;20065;-76
2023/06/22 12:37:55;;;;;;;8.07;6.20;;;;;;;;;;6212753;28;20062;-75
2023/06/22 12:40:57;;;;;;;12.75;6.38;;;;;;;;;;6215168;28;20056;-75
2023/06/22 12:43:58;;;;;;;;;;;;;;;;;;6215642;28;20053;-76
2023/06/22 12:47:00;;;;;;;17.73;7.33;;;;;;;;;;6215378;28;19926;-74
2023/06/22 12:50:01;;;;;;;11.65;7.10;;;;;;;;;;6214813;28;20056;-75
2023/06/22 12:53:06;;;;;;;12.23;7.18;;;;;;;;;;6214770;28;20068;-75
2023/06/22 12:56:07;;;;;;;12.48;7.50;;;;;;;;;;6213559;28;20062;-74
2023/06/22 12:59:09;;;;;;;10.32;6.93;;;;;;;;;;6216501;28;20057;-75
2023/06/22 13:02:11;;;;;;;12.20;7.28;;;;;;;;;;6213577;28;20341;-75
2023/06/22 13:05:13;;;;;;;11.02;7.20;;;;;;;;;;6215633;28;20058;-75
2023/06/22 13:08:16;;;;;;;10.77;7.00;;;;;;;;;;6215601;28;20058;-75
2023/06/22 13:11:18;;;;;;;10.18;6.88;;;;;;;;;;6213762;28;20069;-76
2023/06/22 13:14:19;;;;;;;;;;;;;;;;;;6214343;28;20150;-76
2023/06/22 13:17:21;;;;;;;7.45;6.68;;;;;;;;;;6214943;28;19917;-76
2023/06/22 13:20:23;;;;;;;9.55;6.32;;;;;;;;;;6218301;28;20053;-75
2023/06/22 13:23:26;;;;;;;;;;;;;;;;;;6221378;28;20289;-76
2023/06/22 13:26:29;;;;;;;11.63;6.78;;;;;;;;;;6220547;28;19932;-76
2023/06/22 13:29:31;;;;;;;11.77;6.60;;;;;;;;;;6218513;28;20053;-75
2023/06/22 13:32:32;;;;;;;10.00;6.65;;;;;;;;;;6222760;28;20054;-75
2023/06/22 13:35:34;;;;;;;9.45;7.00;;;;;;;;;;6219389;28;20169;-75
2023/06/22 13:38:38;;;;;;;10.20;6.90;;;;;;;;;;6219300;28;20465;-75
2023/06/22 13:41:43;;;;;;;11.40;6.40;;;;;;;;;;6219041;28;20050;-74
2023/06/22 13:44:45;;;;;;;9.77;6.13;;;;;;;;;;6218782;28;20065;-75
2023/06/22 13:47:47;;;;;;;9.10;6.60;;;;;;;;;;6218815;28;20066;-75
2023/06/22 13:50:48;;;;;;;11.65;7.75;;;;;;;;;;6220976;28;20253;-76
2023/06/22 13:53:51;;;;;;;15.15;8.05;;;;;;;;;;6218977;28;20054;-75
2023/06/22 13:56:53;;;;;;;16.98;8.13;;;;;;;;;;6217711;28;20058;-74
2023/06/22 13:59:55;;;;;;;10.68;7.30;;;;;;;;;;6219679;28;20050;-75
2023/06/22 14:02:56;;;;;;;15.75;7.65;;;;;;;;;;6219403;28;20070;-75
2023/06/22 14:05:58;;;;;;;12.73;7.80;;;;;;;;;;6219213;28;20058;-74
2023/06/22 14:09:01;;;;;;;16.52;6.88;;;;;;;;;;6218730;28;20062;-75
2023/06/22 14:12:07;;;;;;;10.68;7.57;;;;;;;;;;6218044;28;20377;-74
2023/06/22 14:15:09;;;;;;;16.42;7.97;;;;;;;;;;6222499;28;20053;-74
2023/06/22 14:18:11;;;;;;;15.20;8.25;;;;;;;;;;6214261;28;20286;-74
2023/06/22 14:21:13;;;;;;;13.27;7.50;;;;;;;;;;6221308;28;20333;-75
2023/06/22 14:24:16;;;;;;;15.07;8.02;;;;;;;;;;6217970;28;20207;-75
2023/06/22 14:27:18;;;;;;;12.13;7.45;;;;;;;;;;6222212;28;20050;-76
2023/06/22 14:30:19;;;;;;;12.60;8.52;;;;;;;;;;6217604;28;20046;-75
2023/06/22 14:33:21;;;;;;;11.43;8.30;;;;;;;;;;6217215;28;20061;-76
2023/06/22 14:36:23;;;;;;;9.60;8.60;;;;;;;;;;6217517;28;20046;-76
2023/06/22 14:39:26;;;;;;;12.32;7.80;;;;;;;;;;6220007;28;20053;-74
2023/06/22 14:42:29;;;;;;;16.58;8.82;;;;;;;;;;6218433;28;20058;-74
2023/06/22 14:45:31;;;;;;;10.40;9.10;;;;;;;;;;6220196;28;20053;-74
2023/06/22 14:48:33;;;;;;;17.00;8.93;;;;;;;;;;6217820;28;20101;-75
2023/06/22 14:51:34;;;;;;;15.60;8.48;;;;;;;;;;6221254;28;20049;-75
2023/06/22 14:54:38;;;;;;;13.23;8.90;;;;;;;;;;6215388;28;20054;-75
2023/06/22 14:57:39;;;;;;;10.38;7.78;;;;;;;;;;6218101;28;20211;-75
2023/06/22 15:00:41;;;;;;;13.27;7.35;;;;;;;;;;6218462;28;20388;-75
2023/06/22 15:03:43;;;;;;;10.73;7.85;;;;;;;;;;6216120;28;20057;-76
2023/06/22 15:06:45;;;;;;;11.23;7.78;;;;;;;;;;6221084;28;20058;-75
2023/06/22 15:09:48;;;;;;;11.82;7.95;;;;;;;;;;6215831;28;20062;-75
2023/06/22 15:12:50;;;;;;;11.52;7.13;;;;;;;;;;6220095;28;20054;-75
2023/06/22 15:15:51;;;;;;;13.20;7.25;;;;;;;;;;6218260;28;20056;-75
2023/06/22 15:18:53;;;;;;;14.80;7.10;;;;;;;;;;6218015;28;20061;-74
2023/06/22 15:21:55;;;;;;;12.80;6.22;;;;;;;;;;6216283;28;20048;-76
2023/06/22 15:24:58;;;;;;;10.80;6.67;;;;;;;;;;6218105;28;20093;-75
2023/06/22 15:28:00;;;;;;;8.80;6.22;;;;;;;;;;6217347;28;20050;-74
2023/06/22 15:31:02;;;;;;;12.63;6.07;;;;;;;;;;6217707;28;20134;-75
2023/06/22 15:34:04;;;;;;;16.00;6.45;;;;;;;;;;6216361;28;20038;-75
2023/06/22 15:37:06;;;;;;;14.70;7.10;;;;;;;;;;6220645;28;20054;-75
2023/06/22 15:40:10;;;;;;;8.80;5.90;;;;;;;;;;6218475;28;20046;-75
2023/06/22 15:43:13;;;;;;;13.60;5.90;;;;;;;;;;6217941;28;20053;-74
2023/06/22 15:46:17;;;;;;;11.60;6.20;;;;;;;;;;6216994;28;20096;-74
2023/06/22 15:49:19;;;;;;;11.43;6.15;;;;;;;;;;6219385;28;20050;-74
2023/06/22 15:52:20;;;;;;;11.13;6.10;;;;;;;;;;6216905;28;20061;-75
2023/06/22 15:55:24;;;;;;;9.50;5.97;;;;;;;;;;6218718;28;20473;-74
2023/06/22 15:58:25;;;;;;;12.60;5.70;;;;;;;;;;6214286;28;20238;-76
2023/06/22 16:01:27;;;;;;;10.35;6.20;;;;;;;;;;6212979;28;20058;-75
2023/06/22 16:04:29;;;;;;;10.05;5.55;;;;;;;;;;6213429;28;20105;-76
2023/06/22 16:07:30;;;;;;;12.63;6.13;;;;;;;;;;6216843;28;20054;-74
2023/06/22 16:10:34;;;;;;;10.70;5.63;;;;;;;;;;6214581;28;20054;-74
2023/06/22 16:13:35;;;;;;;10.20;5.75;;;;;;;;;;6215834;28;20476;-74
2023/06/22 16:16:37;;;;;;;7.65;5.28;;;;;;;;;;6215733;28;20342;-75
2023/06/22 16:19:39;;;;;;;10.55;5.47;;;;;;;;;;6215618;28;20459;-75
2023/06/22 16:22:40;;;;;;;21.97;6.13;;;;;;;;;;6215932;28;20057;-73
2023/06/22 16:25:45;;;;;;;10.80;5.27;;;;;;;;;;6216266;28;20081;-76
2023/06/22 16:28:46;;;;;;;6.82;4.95;;;;;;;;;;6217433;28;20300;-76
2023/06/22 16:31:48;;;;;;;10.43;4.67;;;;;;;;;;6214433;28;20066;-75
2023/06/22 16:34:50;;;;;;;11.03;5.70;;;;;;;;;;6213127;28;20062;-75
2023/06/22 16:37:54;;;;;;;9.73;5.53;;;;;;;;;;6217473;28;20053;-73
2023/06/22 16:40:57;;;;;;;7.95;5.60;;;;;;;;;;6216879;28;20121;-75
2023/06/22 16:44:04;;;;;;;12.63;5.47;;;;;;;;;;6215437;28;20062;-74
2023/06/22 16:47:08;;;;;;;9.77;5.47;;;;;;;;;;6216417;28;20046;-74
2023/06/22 16:50:10;;;;;;;11.50;5.20;;;;;;;;;;6214997;28;20068;-74
2023/06/22 16:53:12;;;;;;;;;;;;;;;;;;6213546;28;20045;-74
2023/06/22 16:56:15;;;;;;;10.65;5.18;;;;;;;;;;6214721;28;19940;-74
2023/06/22 16:59:16;;;;;;;8.95;5.63;;;;;;;;;;6215843;28;20053;-75
2023/06/22 17:02:20;;;;;;;10.23;6.53;;;;;;;;;;6217323;28;20188;-73
2023/06/22 17:05:22;;;;;;;14.18;5.72;;;;;;;;;;6215635;28;20086;-73
2023/06/22 17:08:27;;;;;;;11.95;6.18;;;;;;;;;;6216984;28;20096;-75
2023/06/22 17:11:31;;;;;;;11.20;5.53;;;;;;;;;;6215498;28;20062;-74
2023/06/22 17:14:33;;;;;;;14.70;5.90;;;;;;;;;;6213351;28;20064;-74
2023/06/22 17:17:35;;;;;;;13.43;6.63;;;;;;;;;;6217749;28;20123;-74
2023/06/22 17:20:37;;;;;;;9.40;5.97;;;;;;;;;;6217667;28;20049;-74
2023/06/22 17:23:39;;;;;;;10.10;6.30;;;;;;;;;;6215839;28;20175;-74
2023/06/22 17:26:46;;;;;;;13.10;5.72;;;;;;;;;;6215321;28;20046;-75
2023/06/22 17:29:48;;;;;;;11.40;6.10;;;;;;;;;;6214216;28;20062;-75
2023/06/22 17:32:50;;;;;;;10.35;5.65;;;;;;;;;;6215301;28;20054;-74
2023/06/22 17:35:52;;;;;;;11.27;5.68;;;;;;;;;;6215736;28;20060;-74
2023/06/22 17:38:59;;;;;;;11.30;5.40;;;;;;;;;;6215471;28;20943;-75
2023/06/22 17:42:02;;;;;;;7.72;5.05;;;;;;;;;;6218622;28;20056;-75
2023/06/22 17:45:05;;;;;;;11.15;5.63;;;;;;;;;;6215497;28;20058;-75
2023/06/22 17:48:09;;;;;;;9.93;6.30;;;;;;;;;;6215649;28;20291;-75
2023/06/22 17:51:11;;;;;;;9.57;6.03;;;;;;;;;;6215227;28;20045;-76
2023/06/22 17:54:13;;;;;;;9.23;5.67;;;;;;;;;;6217761;28;20057;-78
2023/06/22 17:57:17;;;;;;;11.13;5.55;;;;;;;;;;6216398;28;20484;-77
2023/06/22 18:00:20;;;;;;;10.50;5.20;;;;;;;;;;6217390;28;20054;-78
2023/06/22 18:03:24;;;;;;;10.00;6.00;;;;;;;;;;6217331;28;20050;-77
2023/06/22 18:06:28;;;;;;;8.07;5.72;;;;;;;;;;6218132;28;20054;-76
2023/06/22 18:09:30;;;;;;;8.88;5.70;;;;;;;;;;6222289;28;20085;-77